Adel, Georgia
Current Conditions -  °F | °C
As of 6:00 PM on Monday 24 Nov 2014 (Local Time) from KVAD Reporting Station
Light Rain Light Rain  
Wind Chill: 66°   Ceiling: 8000
Heat Index: 66°   Visibility: 10mi
Dew Point: 64°   Wind: 7mph
Humidity: 94%   Direction: 180°S
Pressure: 29.9"   Gusts: NA
Location:  31.14°N, 83.42°W
Report Text: KVAD 242300Z AUTO 18006KT 10SM -RA BKN080 19/18 A2990 RMK AO2 LTG DSNT SE
Loading
Personal Weather Stations






























Interactive Weather Map New forecast layout! Learn more

10-Day Weather Forecast

Advertisements
Track Severe Weather on mobile